Time;durP1;ratioP1;P1;durP2;ratioP2;P2;SDS_P1;SDS_P2;PMS_P1;PMS_P2;Temp;Humidity;BMP_temperature;BMP_pressure;BME280_temperature;BME280_humidity;BME280_pressure;Samples;Min_cycle;Max_cycle;Signal;HPM_P1;HPM_P2
2022/12/01 00:01:08;;;;;;;42.42;17.15;;;;;;;4.85;100.00;102604.22;4987097;28;20121;-73
2022/12/01 00:03:34;;;;;;;42.10;18.63;;;;;;;4.83;100.00;102604.25;4985650;28;20481;-73
2022/12/01 00:06:04;;;;;;;42.65;18.30;;;;;;;4.82;100.00;102593.50;4989268;28;20030;-73
2022/12/01 00:08:31;;;;;;;47.55;19.20;;;;;;;4.83;100.00;102595.25;4990946;28;20452;-73
2022/12/01 00:11:03;;;;;;;45.22;19.25;;;;;;;4.82;100.00;102597.06;4997079;28;20485;-73
2022/12/01 00:13:29;;;;;;;;;;;;;;;4.85;100.00;102596.13;5006217;28;20447;-73
2022/12/01 00:15:54;;;;;;;42.80;17.33;;;;;;;4.83;100.00;102600.66;5002566;28;21003;-74
2022/12/01 00:18:19;;;;;;;46.25;18.23;;;;;;;4.83;100.00;102601.53;5009206;28;20045;-73
2022/12/01 00:20:47;;;;;;;44.85;18.30;;;;;;;4.82;100.00;102601.59;4993376;28;20042;-73
2022/12/01 00:23:13;;;;;;;46.60;19.48;;;;;;;4.80;100.00;102595.31;4980185;28;20065;-73
2022/12/01 00:25:38;;;;;;;50.28;19.73;;;;;;;4.80;100.00;102593.53;4988243;28;20486;-73
2022/12/01 00:28:03;;;;;;;45.05;18.63;;;;;;;4.80;100.00;102598.94;4990606;28;20382;-73
2022/12/01 00:30:29;;;;;;;50.90;18.30;;;;;;;4.78;100.00;102594.47;4988724;28;20390;-73
2022/12/01 00:32:54;;;;;;;49.63;19.58;;;;;;;4.81;100.00;102600.69;4989308;28;20205;-73
2022/12/01 00:35:19;;;;;;;46.63;19.95;;;;;;;4.81;100.00;102599.81;4989724;28;20041;-72
2022/12/01 00:37:45;;;;;;;46.80;20.25;;;;;;;4.81;100.00;102599.81;4988249;28;20037;-73
2022/12/01 00:40:11;;;;;;;46.90;19.70;;;;;;;4.81;100.00;102595.31;4988511;28;20045;-73
2022/12/01 00:42:36;;;;;;;49.83;19.48;;;;;;;4.81;100.00;102597.13;4989801;28;20050;-73
2022/12/01 00:45:02;;;;;;;55.70;19.88;;;;;;;4.81;100.00;102592.59;4988850;28;20026;-73
2022/12/01 00:47:27;;;;;;;50.25;20.08;;;;;;;4.82;100.00;102598.88;4990959;28;20406;-73
2022/12/01 00:49:53;;;;;;;52.67;20.13;;;;;;;4.82;100.00;102601.59;4992125;28;20042;-73
2022/12/01 00:52:19;;;;;;;59.65;20.98;;;;;;;4.81;100.00;102597.13;5003180;28;20061;-73
2022/12/01 00:54:45;;;;;;;49.42;19.05;;;;;;;4.82;100.00;102601.59;4970988;28;20025;-73
2022/12/01 00:57:11;;;;;;;56.47;20.42;;;;;;;4.82;100.00;102604.28;5003828;28;20038;-73
2022/12/01 00:59:37;;;;;;;57.55;21.08;;;;;;;4.82;100.00;102602.47;4989379;28;20478;-73
2022/12/01 01:02:04;;;;;;;56.42;20.30;;;;;;;4.83;100.00;102597.97;5004226;28;20042;-73
2022/12/01 01:04:31;;;;;;;60.42;20.48;;;;;;;4.81;100.00;102600.69;5003741;28;20026;-73
2022/12/01 01:06:56;;;;;;;59.90;21.23;;;;;;;4.82;100.00;102598.88;4987669;28;20125;-73
2022/12/01 01:09:22;;;;;;;54.75;21.35;;;;;;;4.80;100.00;102603.41;5006036;28;20132;-73
2022/12/01 01:11:47;;;;;;;56.47;19.60;;;;;;;4.80;100.00;102601.63;5005091;28;20042;-73
2022/12/01 01:14:12;;;;;;;59.92;21.90;;;;;;;4.80;100.00;102598.94;4987736;28;20045;-73
2022/12/01 01:16:38;;;;;;;57.55;21.52;;;;;;;4.79;100.00;102607.91;4988650;28;20121;-73
2022/12/01 01:19:03;;;;;;;54.53;20.00;;;;;;;4.80;100.00;102609.72;4989446;28;20042;-73
2022/12/01 01:21:29;;;;;;;53.58;19.40;;;;;;;4.80;100.00;102608.78;4989563;28;20389;-73
2022/12/01 01:23:54;;;;;;;56.58;19.10;;;;;;;4.78;100.00;102610.66;4986933;28;20046;-72
2022/12/01 01:26:22;;;;;;;58.65;19.52;;;;;;;4.80;100.00;102614.19;4970973;28;20037;-72
2022/12/01 01:28:48;;;;;;;58.08;21.90;;;;;;;4.81;100.00;102624.97;4988885;28;20053;-73
2022/12/01 01:31:17;;;;;;;49.30;18.48;;;;;;;4.77;100.00;102620.56;5002695;28;20474;-73
2022/12/01 01:33:43;;;;;;;49.40;17.17;;;;;;;4.78;100.00;102625.00;4988951;28;20469;-73
2022/12/01 01:36:09;;;;;;;52.80;19.27;;;;;;;4.78;100.00;102633.09;4985092;28;20038;-73
2022/12/01 01:38:35;;;;;;;48.90;18.23;;;;;;;4.77;100.00;102628.63;4987975;28;20080;-73
2022/12/01 01:41:02;;;;;;;53.08;18.05;;;;;;;4.79;100.00;102631.28;5001885;28;20034;-73
2022/12/01 01:43:39;;;;;;;51.25;18.73;;;;;;;4.79;100.00;102634.88;5003527;28;20042;-73
2022/12/01 01:46:05;;;;;;;57.80;21.33;;;;;;;4.77;100.00;102625.94;4998969;28;20042;-73
2022/12/01 01:48:35;;;;;;;54.78;17.80;;;;;;;4.79;100.00;102628.59;4989208;28;20022;-73
2022/12/01 01:51:01;;;;;;;55.72;19.38;;;;;;;4.80;100.00;102635.75;4988315;28;20512;-73
2022/12/01 01:53:27;;;;;;;49.90;17.92;;;;;;;4.78;100.00;102630.41;4991554;28;20474;-73
2022/12/01 01:55:52;;;;;;;50.00;19.00;;;;;;;4.80;100.00;102622.28;5007786;28;20056;-73
2022/12/01 01:58:19;;;;;;;55.70;19.42;;;;;;;4.78;100.00;102630.41;5003735;28;20425;-73
2022/12/01 02:00:45;;;;;;;59.88;20.25;;;;;;;4.81;100.00;102632.16;4987675;28;20470;-73
2022/12/01 02:03:13;;;;;;;56.25;18.67;;;;;;;4.81;100.00;102642.97;4988158;28;20605;-73
2022/12/01 02:05:41;;;;;;;48.70;18.35;;;;;;;4.80;100.00;102630.38;4996429;28;20038;-73
2022/12/01 02:08:11;;;;;;;55.22;19.65;;;;;;;4.78;100.00;102624.13;5005029;28;20114;-73
2022/12/01 02:11:47;;;;;;;52.97;23.08;;;;;;;4.81;100.00;102635.75;4999364;28;20497;-73
2022/12/01 02:14:38;;;;;;;57.75;21.15;;;;;;;4.80;100.00;102630.38;4992579;28;20081;-73
2022/12/01 02:17:03;;;;;;;55.10;19.25;;;;;;;4.79;100.00;102634.88;4986839;28;20409;-73
2022/12/01 02:19:54;;;;;;;60.90;20.17;;;;;;;4.83;100.00;102635.72;4987711;28;20041;-73
2022/12/01 02:23:03;;;;;;;63.42;20.40;;;;;;;4.78;100.00;102630.41;4987731;28;20030;-73
2022/12/01 02:25:34;;;;;;;57.75;20.98;;;;;;;4.79;100.00;102632.19;4986190;28;20085;-73
2022/12/01 02:28:32;;;;;;;61.38;20.48;;;;;;;4.79;100.00;102631.28;4988252;28;20046;-73
2022/12/01 02:31:07;;;;;;;62.70;19.77;;;;;;;4.77;100.00;102633.16;4987373;28;20494;-73
2022/12/01 02:33:41;;;;;;;58.55;21.75;;;;;;;4.78;100.00;102632.22;4987070;28;20038;-73
2022/12/01 02:36:33;;;;;;;62.10;20.35;;;;;;;4.80;100.00;102635.75;4987275;28;20394;-73
2022/12/01 02:39:22;;;;;;;57.13;20.67;;;;;;;4.80;100.00;102635.75;4987186;28;20427;-73
2022/12/01 02:41:52;;;;;;;58.97;20.08;;;;;;;4.78;100.00;102632.22;4997869;28;20046;-73
2022/12/01 02:44:28;;;;;;;67.72;23.00;;;;;;;4.78;100.00;102629.53;5006867;28;20033;-73
2022/12/01 02:47:09;;;;;;;57.95;20.15;;;;;;;4.77;100.00;102633.16;4992864;28;20648;-72
2022/12/01 02:49:40;;;;;;;64.45;20.50;;;;;;;4.77;100.00;102630.44;4986076;28;20402;-72
2022/12/01 02:52:06;;;;;;;56.83;20.90;;;;;;;4.77;100.00;102631.34;4987094;28;20050;-73
2022/12/01 02:54:32;;;;;;;57.92;21.33;;;;;;;4.76;100.00;102632.25;4985742;28;20537;-72
2022/12/01 02:56:58;;;;;;;59.00;21.38;;;;;;;4.78;100.00;102634.91;4986627;28;20038;-72
2022/12/01 02:59:23;;;;;;;61.28;20.58;;;;;;;4.78;100.00;102633.09;5002224;28;20049;-73
2022/12/01 03:01:56;;;;;;;59.85;20.85;;;;;;;4.77;100.00;102631.34;4992370;28;20069;-73
2022/12/01 03:04:25;;;;;;;58.85;20.13;;;;;;;4.77;100.00;102631.34;4986706;28;20045;-73
2022/12/01 03:07:14;;;;;;;53.80;18.40;;;;;;;4.81;100.00;102634.88;4998272;28;20085;-73
2022/12/01 03:10:07;;;;;;;52.72;18.80;;;;;;;4.77;100.00;102628.63;4984881;28;20042;-73
2022/12/01 03:12:55;;;;;;;56.30;21.27;;;;;;;4.77;100.00;102628.63;4987754;28;20061;-73
2022/12/01 03:15:34;;;;;;;55.92;20.85;;;;;;;4.77;100.00;102630.44;4986719;28;20049;-73
2022/12/01 03:18:26;;;;;;;60.45;21.48;;;;;;;4.77;100.00;102636.72;4987893;28;20039;-73
2022/12/01 03:21:00;;;;;;;57.97;21.63;;;;;;;4.77;100.00;102638.53;4997329;28;20486;-73
2022/12/01 03:23:32;;;;;;;48.90;20.10;;;;;;;4.77;100.00;102636.72;4985935;28;20046;-73
2022/12/01 03:26:00;;;;;;;60.00;20.42;;;;;;;4.77;100.00;102628.63;4989761;28;20030;-73
2022/12/01 03:28:44;;;;;;;56.53;21.80;;;;;;;4.77;100.00;102627.75;4987117;28;20022;-73
2022/12/01 03:31:16;;;;;;;48.35;20.23;;;;;;;4.80;100.00;102630.38;4998982;28;20048;-73
2022/12/01 03:33:57;;;;;;;56.83;20.55;;;;;;;4.78;100.00;102633.09;4987124;28;20046;-73
2022/12/01 03:36:35;;;;;;;50.40;19.77;;;;;;;4.78;100.00;102629.53;4985874;28;20038;-72
2022/12/01 03:39:05;;;;;;;59.22;22.27;;;;;;;4.77;100.00;102633.16;4987286;28;20295;-72
2022/12/01 03:41:38;;;;;;;53.55;19.58;;;;;;;4.77;100.00;102631.34;4991073;28;20034;-73
2022/12/01 03:44:09;;;;;;;54.08;20.50;;;;;;;4.78;100.00;102634.91;4989871;28;20043;-73
2022/12/01 03:46:46;;;;;;;56.50;20.30;;;;;;;4.79;100.00;102634.88;4990348;28;20129;-73
2022/12/01 03:49:13;;;;;;;55.83;20.80;;;;;;;4.78;100.00;102624.13;4990811;28;20049;-73
2022/12/01 03:51:45;;;;;;;57.22;20.55;;;;;;;4.78;100.00;102632.22;4990601;28;20124;-73
2022/12/01 03:54:18;;;;;;;50.88;19.60;;;;;;;4.78;100.00;102633.09;4989650;28;20034;-73
2022/12/01 03:56:51;;;;;;;47.33;18.90;;;;;;;4.78;100.00;102637.63;4989865;28;20720;-73
2022/12/01 03:59:19;;;;;;;57.65;21.75;;;;;;;4.78;100.00;102640.31;4988884;28;20030;-73
2022/12/01 04:01:45;;;;;;;57.30;20.65;;;;;;;4.78;100.00;102634.91;4989042;28;20046;-73
2022/12/01 04:04:12;;;;;;;55.20;19.55;;;;;;;4.78;100.00;102643.00;4989859;28;20061;-73
2022/12/01 04:06:41;;;;;;;53.40;20.08;;;;;;;4.76;100.00;102628.69;4972546;28;20498;-73
2022/12/01 04:09:07;;;;;;;57.05;20.75;;;;;;;4.75;100.00;102633.16;4987022;28;20034;-73
2022/12/01 04:14:16;;;;;;;59.00;20.88;;;;;;;4.76;100.00;102634.97;4990304;28;20401;-73
2022/12/01 04:16:41;;;;;;;56.83;21.00;;;;;;;4.76;100.00;102639.47;4989998;28;20042;-73
2022/12/01 04:19:07;;;;;;;51.33;20.40;;;;;;;4.75;100.00;102640.34;4989872;28;20442;-73
2022/12/01 04:21:32;;;;;;;45.03;18.83;;;;;;;4.72;100.00;102635.03;4989410;28;20126;-72
2022/12/01 04:24:00;;;;;;;52.03;19.30;;;;;;;4.77;100.00;102643.94;4988220;28;20109;-74
2022/12/01 04:26:31;;;;;;;52.00;20.55;;;;;;;4.74;100.00;102639.47;4989396;28;20058;-73
2022/12/01 04:28:58;;;;;;;56.53;21.83;;;;;;;4.74;100.00;102634.06;4990039;28;20398;-73
2022/12/01 04:31:23;;;;;;;50.70;20.00;;;;;;;4.75;100.00;102635.84;4987128;28;20035;-73
2022/12/01 04:33:49;;;;;;;56.97;20.77;;;;;;;4.74;100.00;102631.38;4988557;28;20471;-72
2022/12/01 04:36:14;;;;;;;53.65;20.55;;;;;;;4.75;100.00;102633.16;4989349;28;20044;-73
2022/12/01 04:38:39;;;;;;;49.05;20.17;;;;;;;4.76;100.00;102637.66;4989370;28;20045;-72
2022/12/01 04:41:09;;;;;;;46.88;20.33;;;;;;;4.78;100.00;102640.31;4988554;28;20034;-73
2022/12/01 04:43:35;;;;;;;57.17;21.05;;;;;;;4.76;100.00;102636.78;4989472;28;20042;-73
2022/12/01 04:46:01;;;;;;;52.40;21.45;;;;;;;4.73;100.00;102632.31;5003856;28;20038;-73
2022/12/01 04:48:26;;;;;;;54.67;20.45;;;;;;;4.74;100.00;102642.16;4988250;28;20081;-73
2022/12/01 04:50:51;;;;;;;52.03;20.45;;;;;;;4.72;100.00;102635.94;4988493;28;20339;-73
2022/12/01 04:53:17;;;;;;;48.67;20.52;;;;;;;4.73;100.00;102644.91;4995939;28;20128;-72
2022/12/01 04:55:42;;;;;;;50.75;21.15;;;;;;;4.74;100.00;102638.59;4987744;28;20044;-73
2022/12/01 04:58:07;;;;;;;55.05;21.40;;;;;;;4.72;100.00;102635.03;4989560;28;20118;-72
2022/12/01 05:00:33;;;;;;;48.30;18.45;;;;;;;4.70;100.00;102629.66;4988200;28;20030;-73
2022/12/01 05:02:59;;;;;;;51.40;21.42;;;;;;;4.72;100.00;102635.94;4989258;28;20049;-73
2022/12/01 05:05:25;;;;;;;53.90;20.83;;;;;;;4.72;100.00;102633.22;4988641;28;20153;-73
2022/12/01 05:07:50;;;;;;;51.15;20.25;;;;;;;4.71;100.00;102627.84;4992142;28;20502;-73
2022/12/01 05:10:17;;;;;;;55.83;20.52;;;;;;;4.72;100.00;102633.22;5002423;28;20079;-73
2022/12/01 05:12:45;;;;;;;50.17;21.58;;;;;;;4.70;100.00;102626.97;4989072;28;20137;-73
2022/12/01 05:15:11;;;;;;;54.97;21.27;;;;;;;4.72;100.00;102632.34;4988962;28;20030;-73
2022/12/01 05:17:36;;;;;;;54.53;21.08;;;;;;;4.72;100.00;102629.66;4987479;28;20042;-73
2022/12/01 05:22:46;;;;;;;48.28;18.80;;;;;;;4.71;100.00;102639.56;4988952;28;20041;-73
2022/12/01 05:25:11;;;;;;;52.10;19.30;;;;;;;4.71;100.00;102636.84;4988568;28;20040;-72
2022/12/01 05:27:37;;;;;;;44.67;19.83;;;;;;;4.71;100.00;102642.25;5007168;28;20042;-73
2022/12/01 05:30:02;;;;;;;52.63;19.73;;;;;;;4.72;100.00;102638.63;5007586;28;20041;-72
2022/12/01 05:32:28;;;;;;;54.47;20.73;;;;;;;4.72;100.00;102637.75;4989498;28;20065;-73
2022/12/01 05:34:53;;;;;;;52.92;20.95;;;;;;;4.73;100.00;102643.09;4973785;28;20145;-73
2022/12/01 05:37:18;;;;;;;47.17;18.35;;;;;;;4.73;100.00;102650.28;4988773;28;20058;-72
2022/12/01 05:39:44;;;;;;;49.33;20.80;;;;;;;4.71;100.00;102642.25;4986137;28;20045;-72
2022/12/01 05:42:09;;;;;;;49.63;18.75;;;;;;;4.70;100.00;102642.25;4987462;28;20034;-72
2022/12/01 05:44:34;;;;;;;50.85;20.88;;;;;;;4.71;100.00;102649.41;4987299;28;20158;-73
2022/12/01 05:47:00;;;;;;;58.13;21.40;;;;;;;4.70;100.00;102648.53;4988801;28;20160;-72
2022/12/01 05:49:25;;;;;;;46.15;20.23;;;;;;;4.70;100.00;102647.66;4988198;28;20073;-73
2022/12/01 05:51:50;;;;;;;51.10;19.70;;;;;;;4.69;100.00;102645.88;4987071;28;20034;-73
2022/12/01 05:54:16;;;;;;;48.08;19.50;;;;;;;4.69;100.00;102649.47;5000895;28;20049;-73
2022/12/01 05:56:41;;;;;;;50.30;20.02;;;;;;;4.70;100.00;102648.53;4987476;28;20034;-73
2022/12/01 05:59:06;;;;;;;56.78;20.27;;;;;;;4.68;100.00;102642.28;4987035;28;20131;-73
2022/12/01 06:01:32;;;;;;;50.63;20.17;;;;;;;4.68;100.00;102647.69;4991479;28;20053;-73
2022/12/01 06:03:57;;;;;;;53.53;19.85;;;;;;;4.69;100.00;102648.56;4989615;28;20113;-73
2022/12/01 06:06:23;;;;;;;56.55;20.38;;;;;;;4.69;100.00;102654.84;4987934;28;20034;-73
2022/12/01 06:08:48;;;;;;;54.63;20.83;;;;;;;4.67;100.00;102655.81;4987650;28;20524;-73
2022/12/01 06:11:13;;;;;;;52.03;21.58;;;;;;;4.70;100.00;102655.72;4986757;28;20030;-73
2022/12/01 06:13:39;;;;;;;51.22;20.50;;;;;;;4.68;100.00;102652.19;4986369;28;20050;-73
2022/12/01 06:16:05;;;;;;;59.88;20.90;;;;;;;4.69;100.00;102653.97;4986334;28;20058;-73
2022/12/01 06:18:33;;;;;;;60.65;20.30;;;;;;;4.70;100.00;102661.13;4987251;28;20100;-73
2022/12/01 06:20:59;;;;;;;52.22;20.00;;;;;;;4.69;100.00;102652.16;5002750;28;20066;-73
2022/12/01 06:23:24;;;;;;;57.45;21.00;;;;;;;4.69;100.00;102646.75;4987506;28;20450;-73
2022/12/01 06:25:50;;;;;;;55.70;20.85;;;;;;;4.70;100.00;102653.03;4985125;28;20034;-72
2022/12/01 06:28:15;;;;;;;48.08;19.05;;;;;;;4.72;100.00;102654.81;4986252;28;20042;-73
2022/12/01 06:30:41;;;;;;;55.10;21.88;;;;;;;4.70;100.00;102651.22;4985881;28;20081;-73
2022/12/01 06:33:07;;;;;;;53.83;20.10;;;;;;;4.70;100.00;102651.22;4987928;28;20045;-72
2022/12/01 06:35:33;;;;;;;52.15;19.90;;;;;;;4.71;100.00;102649.41;4987863;28;20117;-73
2022/12/01 06:37:58;;;;;;;60.20;22.33;;;;;;;4.70;100.00;102662.00;4988049;28;20442;-73
2022/12/01 06:40:23;;;;;;;58.90;19.55;;;;;;;4.72;100.00;102667.41;4986206;28;20018;-72
2022/12/01 06:42:49;;;;;;;57.50;21.38;;;;;;;4.71;100.00;102669.22;4987519;28;20253;-73
2022/12/01 06:45:14;;;;;;;56.88;20.60;;;;;;;4.70;100.00;102664.72;4985991;28;20038;-73
2022/12/01 06:47:40;;;;;;;55.50;20.10;;;;;;;4.72;100.00;102659.31;4993484;28;20022;-73
2022/12/01 06:50:08;;;;;;;55.28;20.20;;;;;;;4.70;100.00;102659.31;5000987;28;20046;-72
2022/12/01 06:52:35;;;;;;;54.67;21.00;;;;;;;4.71;100.00;102671.91;4989824;28;20056;-73
2022/12/01 06:55:02;;;;;;;51.55;19.23;;;;;;;4.69;100.00;102670.13;5002009;28;20472;-73
2022/12/01 06:57:28;;;;;;;65.75;23.85;;;;;;;4.72;100.00;102678.19;5003967;28;20523;-73
2022/12/01 06:59:54;;;;;;;50.30;20.67;;;;;;;4.70;100.00;102680.88;5005659;28;20110;-73
2022/12/01 07:02:19;;;;;;;57.15;21.83;;;;;;;4.73;100.00;102682.66;4989404;28;20406;-73
2022/12/01 07:04:44;;;;;;;62.10;21.05;;;;;;;4.73;100.00;102685.34;4986779;28;20496;-73
2022/12/01 07:07:11;;;;;;;53.55;20.02;;;;;;;4.71;100.00;102688.06;4985731;28;20096;-73
2022/12/01 07:09:36;;;;;;;68.00;21.42;;;;;;;4.73;100.00;102693.44;4986108;28;20049;-73
2022/12/01 07:12:01;;;;;;;56.05;20.98;;;;;;;4.72;100.00;102689.84;4987474;28;20042;-73
2022/12/01 07:14:27;;;;;;;59.08;20.63;;;;;;;4.73;100.00;102694.31;4986547;28;20694;-73
2022/12/01 07:16:53;;;;;;;55.53;19.77;;;;;;;4.74;100.00;102689.81;4985194;28;20085;-73
2022/12/01 07:19:19;;;;;;;56.15;20.23;;;;;;;4.75;100.00;102691.59;4987091;28;20470;-73
2022/12/01 07:21:44;;;;;;;63.97;20.38;;;;;;;4.75;100.00;102703.25;4985552;28;20039;-73
2022/12/01 07:24:11;;;;;;;59.90;22.67;;;;;;;4.73;100.00;102701.53;4985827;28;20042;-73
2022/12/01 07:26:37;;;;;;;59.70;21.45;;;;;;;4.73;100.00;102697.00;4999071;28;20091;-73
2022/12/01 07:29:02;;;;;;;57.35;20.55;;;;;;;4.74;100.00;102698.78;5007058;28;20476;-72
2022/12/01 07:31:27;;;;;;;54.03;20.88;;;;;;;4.72;100.00;102694.34;4997833;28;20516;-73
2022/12/01 07:33:53;;;;;;;48.83;20.83;;;;;;;4.74;100.00;102705.97;4969401;28;20509;-73
2022/12/01 07:36:18;;;;;;;54.83;19.45;;;;;;;4.74;100.00;102705.97;4986462;28;20043;-73
2022/12/01 07:38:43;;;;;;;54.97;19.75;;;;;;;4.76;100.00;102701.47;4995500;28;20053;-73
2022/12/01 07:41:12;;;;;;;52.78;19.17;;;;;;;4.77;100.00;102703.25;4985466;28;20038;-73
2022/12/01 07:43:38;;;;;;;57.33;20.73;;;;;;;4.77;100.00;102700.56;4985443;28;20505;-73
2022/12/01 07:46:05;;;;;;;57.85;20.45;;;;;;;4.77;100.00;102703.25;5001615;28;20043;-73
2022/12/01 07:48:30;;;;;;;60.00;20.23;;;;;;;4.78;100.00;102707.72;4987294;28;20025;-74
2022/12/01 07:50:55;;;;;;;62.38;22.88;;;;;;;4.78;100.00;102707.72;4986120;28;20121;-73
2022/12/01 07:53:22;;;;;;;50.63;19.92;;;;;;;4.80;100.00;102717.56;4985383;28;20061;-73
2022/12/01 07:55:49;;;;;;;52.58;19.95;;;;;;;4.80;100.00;102705.88;4983743;28;20486;-73
2022/12/01 07:58:14;;;;;;;50.13;20.20;;;;;;;4.81;100.00;102708.56;4986826;28;20045;-73
2022/12/01 08:00:39;;;;;;;56.85;20.23;;;;;;;4.83;100.00;102713.91;4985825;28;20034;-73
2022/12/01 08:03:05;;;;;;;60.70;21.40;;;;;;;4.83;100.00;102714.78;5001874;28;20082;-73
2022/12/01 08:05:30;;;;;;;54.22;21.30;;;;;;;4.83;100.00;102717.50;4986861;28;20069;-73
2022/12/01 08:07:55;;;;;;;53.70;20.05;;;;;;;4.84;100.00;102719.25;4984969;28;20046;-73
2022/12/01 08:10:21;;;;;;;58.17;22.75;;;;;;;4.87;100.00;102721.03;4985149;28;20088;-73
2022/12/01 08:12:46;;;;;;;49.15;20.77;;;;;;;4.85;100.00;102726.47;4995896;28;20518;-73
2022/12/01 08:15:11;;;;;;;55.10;20.98;;;;;;;4.88;100.00;102733.59;4986433;28;20486;-73
2022/12/01 08:17:37;;;;;;;59.40;20.73;;;;;;;4.89;100.00;102732.66;4999104;28;20038;-73
2022/12/01 08:20:02;;;;;;;58.60;23.15;;;;;;;4.88;100.00;102727.31;4997554;28;20034;-73
2022/12/01 08:22:28;;;;;;;63.80;23.25;;;;;;;4.91;100.00;102733.53;4986476;28;20042;-73
2022/12/01 08:24:53;;;;;;;52.50;20.40;;;;;;;4.92;100.00;102732.63;4985557;28;20790;-73
2022/12/01 08:27:18;;;;;;;53.08;20.90;;;;;;;4.91;100.00;102728.16;4988726;28;20781;-73
2022/12/01 08:29:44;;;;;;;57.22;21.42;;;;;;;4.95;100.00;102732.56;4988707;28;20740;-73
2022/12/01 08:32:09;;;;;;;48.08;21.67;;;;;;;4.97;100.00;102737.91;4989669;28;20109;-73
2022/12/01 08:34:37;;;;;;;49.00;21.88;;;;;;;4.99;100.00;102736.06;5003831;28;20049;-73
2022/12/01 08:37:02;;;;;;;56.42;21.85;;;;;;;5.03;100.00;102738.69;4990147;28;20481;-73
2022/12/01 08:39:27;;;;;;;52.10;21.65;;;;;;;5.03;100.00;102738.69;4988920;28;20046;-73
2022/12/01 08:41:53;;;;;;;48.70;19.35;;;;;;;5.04;100.00;102734.22;4983265;28;20155;-73
2022/12/01 08:44:18;;;;;;;59.75;22.85;;;;;;;5.07;100.00;102743.09;4988145;28;20177;-73
2022/12/01 08:46:43;;;;;;;55.65;20.70;;;;;;;5.10;100.00;102740.38;4989486;28;20070;-73
2022/12/01 08:49:09;;;;;;;48.78;19.58;;;;;;;5.09;100.00;102737.69;4989307;28;20112;-72
2022/12/01 08:51:35;;;;;;;53.78;22.13;;;;;;;5.11;100.00;102735.84;4988113;28;20026;-73
2022/12/01 08:54:00;;;;;;;53.45;22.25;;;;;;;5.12;100.00;102746.59;5003610;28;20064;-73
2022/12/01 08:56:32;;;;;;;50.80;20.73;;;;;;;5.16;100.00;102746.56;4995709;28;20035;-73
2022/12/01 08:58:58;;;;;;;46.05;21.23;;;;;;;5.14;100.00;102741.19;4988085;28;20073;-73
2022/12/01 09:01:26;;;;;;;51.83;22.48;;;;;;;5.17;100.00;102748.31;4989016;28;20116;-73
2022/12/01 09:04:04;;;;;;;52.65;20.05;;;;;;;5.18;100.00;102739.34;4989172;28;20774;-73
2022/12/01 09:06:31;;;;;;;53.53;20.10;;;;;;;5.18;100.00;102737.53;4989691;28;20038;-73
2022/12/01 09:09:00;;;;;;;51.85;20.73;;;;;;;5.21;100.00;102737.44;4988294;28;20054;-73
2022/12/01 09:11:26;;;;;;;49.67;21.42;;;;;;;5.23;100.00;102745.53;4995772;28;20510;-72
2022/12/01 09:13:51;;;;;;;51.63;20.40;;;;;;;5.24;100.00;102740.09;4987953;28;20042;-73
2022/12/01 09:16:17;;;;;;;50.42;19.10;;;;;;;5.26;100.00;102746.34;5000657;28;20065;-72
2022/12/01 09:18:44;;;;;;;48.83;20.67;;;;;;;5.30;100.00;102739.06;4971624;28;20556;-73
2022/12/01 09:21:19;;;;;;;52.45;21.10;;;;;;;5.33;99.40;102744.44;4987396;28;20038;-72
2022/12/01 09:23:45;;;;;;;49.92;19.67;;;;;;;5.34;98.91;102749.78;4987162;28;20394;-73
2022/12/01 09:26:11;;;;;;;51.08;20.00;;;;;;;5.36;99.17;102756.06;4992181;28;20034;-73
2022/12/01 09:28:37;;;;;;;50.28;21.55;;;;;;;5.37;98.31;102754.25;4987667;28;20042;-72
2022/12/01 09:31:11;;;;;;;53.97;21.30;;;;;;;5.38;98.48;102756.91;4989365;28;20486;-73
2022/12/01 09:33:37;;;;;;;55.58;21.42;;;;;;;5.41;98.86;102755.97;4988859;28;20041;-73
2022/12/01 09:36:04;;;;;;;45.33;20.45;;;;;;;5.45;98.77;102759.47;4987683;28;20042;-73
2022/12/01 09:38:32;;;;;;;48.92;21.33;;;;;;;5.45;98.02;102756.75;4989533;28;20040;-73
2022/12/01 09:41:04;;;;;;;52.55;21.67;;;;;;;5.45;97.96;102756.75;4986988;28;20572;-73
2022/12/01 09:43:42;;;;;;;48.20;21.15;;;;;;;5.46;97.85;102762.16;4989220;28;20445;-73
2022/12/01 09:46:14;;;;;;;55.15;21.73;;;;;;;5.47;97.13;102760.34;4971173;28;20042;-73
2022/12/01 09:48:42;;;;;;;53.55;21.45;;;;;;;5.51;96.66;102760.25;4988329;28;20477;-72
2022/12/01 09:51:13;;;;;;;52.90;21.17;;;;;;;5.52;98.06;102766.53;4988138;28;20050;-73
2022/12/01 09:53:40;;;;;;;63.40;20.60;;;;;;;5.54;97.50;102760.16;4987991;28;20462;-73
2022/12/01 09:56:17;;;;;;;50.50;20.98;;;;;;;5.55;97.44;102753.88;4986997;28;20030;-74
2022/12/01 09:58:42;;;;;;;51.80;21.30;;;;;;;5.62;98.15;102750.09;4988324;28;20050;-73
2022/12/01 10:01:16;;;;;;;47.70;21.08;;;;;;;5.69;98.34;102745.47;4987754;28;20464;-73
2022/12/01 10:03:49;;;;;;;49.75;19.75;;;;;;;5.76;98.45;102747.09;4986660;28;20853;-73
2022/12/01 10:06:20;;;;;;;53.55;21.25;;;;;;;5.81;96.36;102745.19;4986670;28;20039;-73
2022/12/01 10:08:59;;;;;;;46.95;20.73;;;;;;;5.80;96.07;102735.31;5002643;28;20045;-73
2022/12/01 10:11:33;;;;;;;44.60;19.90;;;;;;;5.77;95.57;102740.78;4986412;28;20050;-73
2022/12/01 10:13:59;;;;;;;52.00;21.70;;;;;;;5.75;96.28;102748.03;5007458;28;20046;-72
2022/12/01 10:16:33;;;;;;;49.47;21.08;;;;;;;5.71;96.23;102746.31;4998800;28;20077;-72
2022/12/01 10:19:12;;;;;;;48.38;20.52;;;;;;;5.68;96.36;102740.97;4986490;28;20087;-73
2022/12/01 10:21:52;;;;;;;48.13;20.92;;;;;;;5.74;97.49;102739.97;5005732;28;20700;-73
2022/12/01 10:24:32;;;;;;;54.35;20.23;;;;;;;5.79;97.43;102733.53;4987017;28;20038;-73
2022/12/01 10:27:23;;;;;;;49.92;20.90;;;;;;;5.79;94.49;102735.34;4970557;28;20498;-73
2022/12/01 10:30:03;;;;;;;48.60;20.80;;;;;;;5.77;95.26;102732.66;4985917;28;20057;-73
2022/12/01 10:32:41;;;;;;;53.33;21.75;;;;;;;5.80;94.56;102729.03;4990338;28;20049;-72
2022/12/01 10:35:11;;;;;;;54.05;20.77;;;;;;;5.83;95.54;102723.56;5002162;28;20038;-73
2022/12/01 10:37:37;;;;;;;49.15;21.45;;;;;;;5.93;96.67;102721.56;4987626;28;20030;-73
2022/12/01 10:40:03;;;;;;;57.95;23.73;;;;;;;6.01;95.93;102724.97;4986715;28;20045;-73
2022/12/01 10:42:42;;;;;;;50.45;21.83;;;;;;;6.04;95.47;102716.81;4987404;28;20405;-73
2022/12/01 10:45:29;;;;;;;56.65;21.10;;;;;;;6.16;96.90;102716.53;4985979;28;20042;-73
2022/12/01 10:48:16;;;;;;;50.67;20.92;;;;;;;6.19;95.62;102719.13;4986320;28;20437;-73
2022/12/01 10:50:51;;;;;;;54.97;22.30;;;;;;;6.22;94.87;102713.66;4993737;28;20108;-72
2022/12/01 10:53:22;;;;;;;49.38;21.88;;;;;;;6.29;95.43;102714.38;4991551;28;20056;-73
2022/12/01 10:56:04;;;;;;;57.65;22.00;;;;;;;6.29;95.68;102711.69;4985809;28;20041;-73
2022/12/01 10:58:44;;;;;;;56.65;23.00;;;;;;;6.33;94.65;102708.88;4970630;28;20485;-72
2022/12/01 11:01:16;;;;;;;54.75;23.70;;;;;;;6.39;95.96;102716.84;4983707;28;20061;-72
2022/12/01 11:03:42;;;;;;;50.58;22.00;;;;;;;6.42;94.35;102714.97;4987275;28;20044;-73
2022/12/01 11:06:09;;;;;;;53.83;21.85;;;;;;;6.44;94.72;102707.75;4985798;28;20731;-73
2022/12/01 11:08:43;;;;;;;57.25;21.85;;;;;;;6.43;93.46;102704.13;4987011;28;20042;-73
2022/12/01 11:11:23;;;;;;;50.85;20.92;;;;;;;6.51;94.33;102699.41;4968789;28;20046;-73
2022/12/01 11:13:48;;;;;;;52.03;21.13;;;;;;;6.53;92.99;102704.81;4987135;28;20060;-72
2022/12/01 11:16:34;;;;;;;52.88;20.92;;;;;;;6.58;93.04;102705.56;4985372;28;20108;-73
2022/12/01 11:19:27;;;;;;;49.83;21.42;;;;;;;6.61;92.36;102703.66;4987775;28;20038;-73
2022/12/01 11:21:56;;;;;;;54.20;20.40;;;;;;;6.70;93.63;102699.81;4986716;28;20462;-72
2022/12/01 11:24:42;;;;;;;52.88;22.35;;;;;;;6.75;92.63;102706.00;4999371;28;20206;-73
2022/12/01 11:27:19;;;;;;;55.80;22.15;;;;;;;6.69;91.68;102702.56;5003091;28;20041;-72